createdAt,value
2022-08-01T00:00:24.606Z,20.60000038
2022-08-01T00:01:28.869Z,21.10000038
2022-08-01T00:02:32.794Z,21.18000031
2022-08-01T00:03:28.245Z,21.12000084
2022-08-01T00:04:29.299Z,21.04000092
2022-08-01T00:06:22.376Z,20.90999985
2022-08-01T00:07:18.922Z,20.85000038
2022-08-01T00:08:22.051Z,20.80999947
2022-08-01T00:09:23.809Z,20.81999969
2022-08-01T00:09:24.466Z,20.81999969
2022-08-01T00:10:18.240Z,20.82999992
2022-08-01T00:11:13.585Z,20.85000038
2022-08-01T00:12:13.931Z,20.81999969
2022-08-01T00:13:12.061Z,20.78000069
2022-08-01T00:14:10.623Z,20.73999977
2022-08-01T00:15:04.907Z,20.69000053
2022-08-01T00:16:16.743Z,20.65999985
2022-08-01T00:17:17.386Z,20.61000061
2022-08-01T00:18:16.291Z,20.60000038
2022-08-01T00:19:11.542Z,20.54999924
2022-08-01T00:21:15.202Z,20.51000023
2022-08-01T00:22:10.608Z,20.5
2022-08-01T00:23:13.048Z,20.5
2022-08-01T00:24:06.046Z,20.47999954
2022-08-01T00:24:14.334Z,20.47999954
2022-08-01T00:25:04.053Z,20.48999977
2022-08-01T00:26:59.243Z,20.54000092
2022-08-01T00:28:04.119Z,20.53000069
2022-08-01T00:28:57.308Z,20.51000023
2022-08-01T00:30:10.686Z,20.5
2022-08-01T00:30:10.687Z,20.5
2022-08-01T00:30:11.394Z,20.5
2022-08-01T00:32:28.507Z,20.69000053
2022-08-01T00:33:10.093Z,20.72999954
2022-08-01T00:34:14.008Z,20.73999977
2022-08-01T00:35:15.752Z,20.68000031
2022-08-01T00:37:19.709Z,20.61000061
2022-08-01T00:38:22.640Z,20.55999947
2022-08-01T00:39:23.679Z,20.52000046
2022-08-01T00:41:25.558Z,20.46999931
2022-08-01T00:42:22.156Z,20.46999931
2022-08-01T00:43:31.510Z,20.45999908
2022-08-01T00:44:31.172Z,20.45000076
2022-08-01T00:46:37.444Z,20.38999939
2022-08-01T00:47:34.218Z,20.37999916
2022-08-01T00:48:44.147Z,20.36000061
2022-08-01T00:49:48.217Z,20.34000015
2022-08-01T00:51:53.161Z,20.32999992
2022-08-01T00:52:51.774Z,20.32999992
2022-08-01T00:53:54.081Z,20.30999947
2022-08-01T00:54:50.549Z,20.30999947
2022-08-01T00:55:52.615Z,20.31999969
2022-08-01T00:56:53.249Z,20.30999947
2022-08-01T00:58:01.802Z,20.29000092
2022-08-01T00:58:02.622Z,20.29000092
2022-08-01T00:58:04.686Z,20.29000092
2022-08-01T00:58:52.745Z,20.30999947
2022-08-01T00:59:49.667Z,20.34000015
2022-08-01T01:00:54.883Z,20.37999916
2022-08-01T01:01:50.072Z,20.37000084
2022-08-01T01:02:56.459Z,20.36000061
2022-08-01T01:03:59.104Z,20.36000061
2022-08-01T01:04:57.264Z,20.36000061
2022-08-01T01:05:56.088Z,20.35000038
2022-08-01T01:06:59.581Z,20.35000038
2022-08-01T01:07:55.607Z,20.32999992
2022-08-01T01:09:43.620Z,20.37000084
2022-08-01T01:11:22.520Z,20.45000076
2022-08-01T01:12:23.886Z,20.45000076
2022-08-01T01:13:22.421Z,20.43000031
2022-08-01T01:14:22.364Z,20.38999939
2022-08-01T01:16:20.286Z,20.37000084
2022-08-01T01:17:17.498Z,20.35000038
2022-08-01T01:17:41.992Z,20.35000038
2022-08-01T01:17:50.286Z,20.35000038
2022-08-01T01:18:19.735Z,20.36000061
2022-08-01T01:19:17.729Z,20.38999939
2022-08-01T01:20:16.553Z,20.39999962
2022-08-01T01:22:19.139Z,20.37000084
2022-08-01T01:23:17.129Z,20.37000084
2022-08-01T01:24:18.137Z,20.34000015
2022-08-01T01:25:17.395Z,20.31999969
2022-08-01T01:26:19.649Z,20.30999947
2022-08-01T01:27:12.077Z,20.30999947
2022-08-01T01:28:15.020Z,20.28000069
2022-08-01T01:29:09.718Z,20.27000046
2022-08-01T01:30:13.896Z,20.29000092
2022-08-01T01:32:06.826Z,20.29000092
2022-08-01T01:33:07.134Z,20.26000023
2022-08-01T01:34:03.760Z,20.26000023
2022-08-01T01:35:07.618Z,20.25
2022-08-01T01:35:59.708Z,20.27000046
2022-08-01T01:37:01.193Z,20.25
2022-08-01T01:37:55.147Z,20.26000023
2022-08-01T01:38:55.582Z,20.25
2022-08-01T01:39:54.103Z,20.23999977
2022-08-01T01:41:50.775Z,20.26000023
2022-08-01T01:42:52.935Z,20.27000046
2022-08-01T01:43:47.609Z,20.27000046
2022-08-01T01:44:49.493Z,20.26000023
2022-08-01T01:45:44.534Z,20.27000046
2022-08-01T01:46:44.383Z,20.25
2022-08-01T01:48:21.656Z,20.38999939
2022-08-01T01:50:43.252Z,20.92000008
2022-08-01T01:51:29.188Z,20.98999977
2022-08-01T01:52:25.499Z,20.95999908
2022-08-01T01:53:27.345Z,20.90999985
2022-08-01T01:54:22.690Z,20.84000015
2022-08-01T01:55:28.512Z,20.73999977
2022-08-01T01:56:24.757Z,20.67000008
2022-08-01T01:57:23.694Z,20.61000061
2022-08-01T01:58:19.955Z,20.54999924
2022-08-01T01:59:18.848Z,20.5
2022-08-01T01:59:25.620Z,20.5
2022-08-01T02:00:18.970Z,20.46999931
2022-08-01T02:01:14.853Z,20.5
2022-08-01T02:02:11.963Z,20.46999931
2022-08-01T02:03:05.055Z,20.45000076
2022-08-01T02:04:03.440Z,20.40999985
2022-08-01T02:04:56.819Z,20.38999939
2022-08-01T02:06:51.464Z,20.42000008
2022-08-01T02:07:53.458Z,20.39999962
2022-08-01T02:07:59.753Z,20.39999962
2022-08-01T02:08:51.462Z,20.39999962
2022-08-01T02:09:46.001Z,20.40999985
2022-08-01T02:11:59.116Z,20.38999939
2022-08-01T02:12:07.248Z,20.38999939
2022-08-01T02:12:09.371Z,20.38999939
2022-08-01T02:12:45.220Z,20.38999939
2022-08-01T02:13:43.249Z,20.42000008
2022-08-01T02:14:39.413Z,20.40999985
2022-08-01T02:15:37.679Z,20.40999985
2022-08-01T02:16:31.185Z,20.38999939
2022-08-01T02:17:29.919Z,20.35000038
2022-08-01T02:18:27.941Z,20.32999992
2022-08-01T02:19:29.464Z,20.29999924
2022-08-01T02:20:20.897Z,20.29999924
2022-08-01T02:21:21.792Z,20.29000092
2022-08-01T02:22:15.662Z,20.27000046
2022-08-01T02:23:15.487Z,20.25
2022-08-01T02:24:16.323Z,20.23999977
2022-08-01T02:25:07.515Z,20.22999954
2022-08-01T02:26:10.646Z,20.22999954
2022-08-01T02:27:10.515Z,20.22999954
2022-08-01T02:28:09.807Z,20.22999954
2022-08-01T02:29:10.258Z,20.20000076
2022-08-01T02:30:11.597Z,20.19000053
2022-08-01T02:32:47.756Z,20.26000023
2022-08-01T02:33:33.107Z,20.32999992
2022-08-01T02:34:33.628Z,20.35000038
2022-08-01T02:35:33.113Z,20.36000061
2022-08-01T02:36:34.271Z,20.32999992
2022-08-01T02:37:37.759Z,20.30999947
2022-08-01T02:37:45.231Z,20.30999947
2022-08-01T02:38:37.590Z,20.29999924
2022-08-01T02:39:38.990Z,20.34000015
2022-08-01T02:40:36.183Z,20.32999992
2022-08-01T02:41:33.837Z,20.31999969
2022-08-01T02:42:30.979Z,20.29999924
2022-08-01T02:43:29.608Z,20.25
2022-08-01T02:44:27.616Z,20.23999977
2022-08-01T02:45:25.827Z,20.21999931
2022-08-01T02:47:29.605Z,20.20999908
2022-08-01T02:48:27.151Z,20.20000076
2022-08-01T02:49:26.685Z,20.22999954
2022-08-01T02:50:26.551Z,20.23999977
2022-08-01T02:51:27.134Z,20.23999977
2022-08-01T02:52:24.189Z,20.23999977
2022-08-01T02:53:21.700Z,20.21999931
2022-08-01T02:54:22.731Z,20.19000053
2022-08-01T02:55:20.604Z,20.18000031
2022-08-01T02:57:18.021Z,20.14999962
2022-08-01T02:58:15.108Z,20.14999962
2022-08-01T02:59:13.722Z,20.13999939
2022-08-01T03:00:10.654Z,20.14999962
2022-08-01T03:02:10.223Z,20.15999985
2022-08-01T03:03:11.693Z,20.14999962
2022-08-01T03:04:15.604Z,20.12000084
2022-08-01T03:05:16.747Z,20.11000061
2022-08-01T03:06:17.508Z,20.11000061
2022-08-01T03:07:16.102Z,20.07999992
2022-08-01T03:08:14.703Z,20.07999992
2022-08-01T03:09:11.612Z,20.06999969
2022-08-01T03:10:08.290Z,20.10000038
2022-08-01T03:11:09.504Z,20.10000038
2022-08-01T03:12:05.957Z,20.09000015
2022-08-01T03:13:10.117Z,20.07999992
2022-08-01T03:14:02.745Z,20.07999992
2022-08-01T03:15:05.096Z,20.06999969
2022-08-01T03:17:05.451Z,20.07999992
2022-08-01T03:18:08.097Z,20.04999924
2022-08-01T03:19:00.192Z,20.04000092
2022-08-01T03:20:00.628Z,20.05999947
2022-08-01T03:21:53.416Z,20.04999924
2022-08-01T03:22:52.985Z,20.04999924
2022-08-01T03:23:52.251Z,20.03000069
2022-08-01T03:23:55.281Z,20.03000069
2022-08-01T03:24:50.886Z,20.04999924
2022-08-01T03:25:45.410Z,20.09000015
2022-08-01T03:26:49.650Z,20.09000015
2022-08-01T03:27:54.207Z,20.06999969
2022-08-01T03:28:52.405Z,20.05999947
2022-08-01T03:29:55.922Z,20.05999947
2022-08-01T03:31:52.797Z,20.06999969
2022-08-01T03:32:45.297Z,20.04999924
2022-08-01T03:33:41.847Z,20.05999947
2022-08-01T03:34:48.879Z,20.04999924
2022-08-01T03:36:12.802Z,20.05999947
2022-08-01T03:36:53.575Z,20.05999947
2022-08-01T03:38:14.723Z,20.09000015
2022-08-01T03:38:16.288Z,20.09000015
2022-08-01T03:38:17.219Z,20.09000015
2022-08-01T03:38:52.769Z,20.12000084
2022-08-01T03:39:57.217Z,20.18000031
2022-08-01T03:41:56.227Z,20.18000031
2022-08-01T03:41:57.055Z,20.18000031
2022-08-01T03:42:52.727Z,20.17000008
2022-08-01T03:43:51.112Z,20.17000008
2022-08-01T03:44:53.732Z,20.18000031
2022-08-01T03:46:50.945Z,20.14999962
2022-08-01T03:47:48.039Z,20.12000084
2022-08-01T03:48:50.468Z,20.10000038
2022-08-01T03:49:47.140Z,20.09000015
2022-08-01T03:51:42.449Z,20.07999992
2022-08-01T03:52:48.895Z,20.06999969
2022-08-01T03:53:44.440Z,20.06999969
2022-08-01T03:54:47.349Z,20.05999947
2022-08-01T03:55:41.505Z,20.07999992
2022-08-01T03:56:44.900Z,20.07999992
2022-08-01T03:57:38.248Z,20.09000015
2022-08-01T03:58:38.265Z,20.07999992
2022-08-01T03:59:37.928Z,20.09000015
2022-08-01T04:00:39.205Z,20.07999992
2022-08-01T04:01:41.001Z,20.07999992
2022-08-01T04:02:37.910Z,20.05999947
2022-08-01T04:03:41.861Z,20.06999969
2022-08-01T04:04:39.025Z,20.06999969
2022-08-01T04:05:39.292Z,20.09000015
2022-08-01T04:06:39.590Z,20.07999992
2022-08-01T04:07:33.953Z,20.07999992
2022-08-01T04:08:33.092Z,20.09000015
2022-08-01T04:09:31.141Z,20.07999992
2022-08-01T04:10:32.410Z,20.07999992
2022-08-01T04:11:27.922Z,20.07999992
2022-08-01T04:12:30.490Z,20.07999992
2022-08-01T04:13:26.712Z,20.06999969
2022-08-01T04:13:37.103Z,20.06999969
2022-08-01T04:13:38.311Z,20.06999969
2022-08-01T04:14:30.134Z,20.10000038
2022-08-01T04:15:25.516Z,20.14999962
2022-08-01T04:17:22.018Z,20.17000008
2022-08-01T04:18:26.210Z,20.15999985
2022-08-01T04:19:25.259Z,20.13999939
2022-08-01T04:20:25.209Z,20.12000084
2022-08-01T04:22:29.666Z,20.11000061
2022-08-01T04:23:30.373Z,20.09000015
2022-08-01T04:24:26.834Z,20.09000015
2022-08-01T04:25:26.043Z,20.06999969
2022-08-01T04:26:31.152Z,20.07999992
2022-08-01T04:27:50.052Z,20.05999947
2022-08-01T04:27:51.015Z,20.05999947
2022-08-01T04:27:51.047Z,20.05999947
2022-08-01T04:29:22.932Z,20.18000031
2022-08-01T04:30:24.645Z,20.25
2022-08-01T04:32:23.051Z,20.27000046
2022-08-01T04:33:19.409Z,20.26000023
2022-08-01T04:34:24.692Z,20.22999954
2022-08-01T04:36:07.709Z,20.27000046
2022-08-01T04:36:51.117Z,20.31999969
2022-08-01T04:37:51.220Z,20.32999992
2022-08-01T04:38:49.116Z,20.30999947
2022-08-01T04:39:50.379Z,20.29000092
2022-08-01T04:40:43.378Z,20.27000046
2022-08-01T04:41:42.949Z,20.26000023
2022-08-01T04:42:42.033Z,20.23999977
2022-08-01T04:43:44.426Z,20.21999931
2022-08-01T04:44:38.824Z,20.20999908
2022-08-01T04:45:37.620Z,20.20000076
2022-08-01T04:47:33.633Z,20.18000031
2022-08-01T04:48:30.625Z,20.14999962
2022-08-01T04:49:29.472Z,20.13999939
2022-08-01T04:50:32.573Z,20.13999939
2022-08-01T04:51:26.349Z,20.15999985
2022-08-01T04:52:30.428Z,20.14999962
2022-08-01T04:53:22.690Z,20.15999985
2022-08-01T04:54:22.158Z,20.15999985
2022-08-01T04:55:21.071Z,20.14999962
2022-08-01T04:56:19.220Z,20.15999985
2022-08-01T04:57:19.082Z,20.13999939
2022-08-01T04:58:17.942Z,20.11000061
2022-08-01T04:59:19.821Z,20.12000084
2022-08-01T05:00:14.494Z,20.13999939
2022-08-01T05:02:11.004Z,20.15999985
2022-08-01T05:03:12.017Z,20.13999939
2022-08-01T05:04:06.222Z,20.12999916
2022-08-01T05:05:09.341Z,20.12000084
2022-08-01T05:07:06.150Z,20.13999939
2022-08-01T05:07:58.771Z,20.11000061
2022-08-01T05:08:57.730Z,20.11000061
2022-08-01T05:09:53.546Z,20.11000061
2022-08-01T05:10:53.332Z,20.12999916
2022-08-01T05:11:52.445Z,20.11000061
2022-08-01T05:12:50.225Z,20.12000084
2022-08-01T05:13:54.760Z,20.14999962
2022-08-01T05:14:48.562Z,20.15999985
2022-08-01T05:16:46.621Z,20.17000008
2022-08-01T05:18:31.189Z,20.21999931
2022-08-01T05:19:10.883Z,20.27000046
2022-08-01T05:20:08.879Z,20.30999947
2022-08-01T05:22:03.664Z,20.29000092
2022-08-01T05:23:01.788Z,20.25
2022-08-01T05:23:58.938Z,20.22999954
2022-08-01T05:25:00.540Z,20.20000076
2022-08-01T05:26:02.041Z,20.20000076
2022-08-01T05:27:00.900Z,20.18000031
2022-08-01T05:27:56.103Z,20.17000008
2022-08-01T05:28:58.646Z,20.14999962
2022-08-01T05:29:57.570Z,20.14999962
2022-08-01T05:30:58.734Z,20.14999962
2022-08-01T05:32:00.541Z,20.14999962
2022-08-01T05:32:59.279Z,20.12000084
2022-08-01T05:34:02.276Z,20.11000061
2022-08-01T05:35:01.487Z,20.09000015
2022-08-01T05:37:00.632Z,20.07999992
2022-08-01T05:37:58.651Z,20.04999924
2022-08-01T05:38:54.961Z,20.04999924
2022-08-01T05:39:54.183Z,20.04000092
2022-08-01T05:41:52.059Z,20.04000092
2022-08-01T05:42:45.324Z,20.04999924
2022-08-01T05:43:45.428Z,20.04000092
2022-08-01T05:44:49.148Z,20.04000092
2022-08-01T05:46:47.283Z,20.07999992
2022-08-01T05:47:42.964Z,20.07999992
2022-08-01T05:48:40.237Z,20.09000015
2022-08-01T05:49:36.551Z,20.09000015
2022-08-01T05:50:34.789Z,20.09000015
2022-08-01T05:52:40.785Z,20.14999962
2022-08-01T05:53:02.335Z,20.23999977
2022-08-01T05:54:02.085Z,20.32999992
2022-08-01T05:55:05.141Z,20.37000084
2022-08-01T05:56:03.482Z,20.36000061
2022-08-01T05:57:06.239Z,20.31999969
2022-08-01T05:58:03.930Z,20.29000092
2022-08-01T05:59:03.322Z,20.26000023
2022-08-01T06:00:01.316Z,20.23999977
2022-08-01T06:01:01.366Z,20.21999931
2022-08-01T06:01:56.827Z,20.20000076
2022-08-01T06:02:54.520Z,20.19000053
2022-08-01T06:03:59.162Z,20.18000031
2022-08-01T06:04:52.233Z,20.15999985
2022-08-01T06:06:48.868Z,20.18000031
2022-08-01T06:07:48.511Z,20.18000031
2022-08-01T06:08:44.038Z,20.17000008
2022-08-01T06:09:44.070Z,20.15999985
2022-08-01T06:10:38.725Z,20.15999985
2022-08-01T06:11:42.599Z,20.15999985
2022-08-01T06:12:38.832Z,20.14999962
2022-08-01T06:13:48.274Z,20.13999939
2022-08-01T06:13:48.640Z,20.13999939
2022-08-01T06:13:48.878Z,20.13999939
2022-08-01T06:14:36.064Z,20.15999985
2022-08-01T06:15:34.664Z,20.20000076
2022-08-01T06:17:36.584Z,20.20000076
2022-08-01T06:18:35.924Z,20.18000031
2022-08-01T06:19:37.256Z,20.15999985
2022-08-01T06:20:36.602Z,20.14999962
2022-08-01T06:21:31.173Z,20.14999962
2022-08-01T06:22:33.783Z,20.12999916
2022-08-01T06:23:32.801Z,20.12999916
2022-08-01T06:23:33.007Z,20.12999916
2022-08-01T06:24:29.503Z,20.14999962
2022-08-01T06:25:22.014Z,20.15999985
2022-08-01T06:26:23.990Z,20.20999908
2022-08-01T06:27:21.714Z,20.20000076
2022-08-01T06:27:22.536Z,20.20000076
2022-08-01T06:28:16.756Z,20.21999931
2022-08-01T06:29:11.399Z,20.23999977
2022-08-01T06:30:09.433Z,20.23999977
2022-08-01T06:31:11.841Z,20.26000023
2022-08-01T06:32:04.588Z,20.23999977
2022-08-01T06:33:05.269Z,20.25
2022-08-01T06:33:59.807Z,20.23999977
2022-08-01T06:34:59.864Z,20.23999977
2022-08-01T06:36:57.771Z,20.21999931
2022-08-01T06:37:50.014Z,20.20999908
2022-08-01T06:38:50.331Z,20.22999954
2022-08-01T06:39:51.265Z,20.20999908
2022-08-01T06:41:42.661Z,20.29999924
2022-08-01T06:42:24.724Z,20.34000015
2022-08-01T06:43:23.950Z,20.36000061
2022-08-01T06:44:23.059Z,20.36000061
2022-08-01T06:45:24.140Z,20.32999992
2022-08-01T06:47:28.663Z,20.31999969
2022-08-01T06:48:22.824Z,20.30999947
2022-08-01T06:49:23.202Z,20.30999947
2022-08-01T06:50:25.400Z,20.30999947
2022-08-01T06:51:19.776Z,20.30999947
2022-08-01T06:52:21.607Z,20.31999969
2022-08-01T06:53:19.674Z,20.30999947
2022-08-01T06:54:23.528Z,20.30999947
2022-08-01T06:55:22.418Z,20.30999947
2022-08-01T06:57:20.252Z,20.35000038
2022-08-01T06:58:20.235Z,20.35000038
2022-08-01T06:58:30.861Z,20.35000038
2022-08-01T06:58:30.872Z,20.35000038
2022-08-01T06:59:22.718Z,20.36000061
2022-08-01T07:00:19.889Z,20.40999985
2022-08-01T07:01:20.815Z,20.45000076
2022-08-01T07:02:18.094Z,20.45999908
2022-08-01T07:03:19.717Z,20.46999931
2022-08-01T07:04:16.219Z,20.47999954
2022-08-01T07:05:20.262Z,20.48999977
2022-08-01T07:07:16.920Z,20.54999924
2022-08-01T07:08:13.649Z,20.57999992
2022-08-01T07:09:15.871Z,20.60000038
2022-08-01T07:10:12.871Z,20.63999939
2022-08-01T07:12:12.553Z,20.68000031
2022-08-01T07:13:15.344Z,20.72999954
2022-08-01T07:14:12.590Z,20.79000092
2022-08-01T07:15:14.454Z,20.81999969
2022-08-01T07:17:12.645Z,20.88999939
2022-08-01T07:18:13.007Z,20.88999939
2022-08-01T07:19:11.356Z,20.90999985
2022-08-01T07:20:16.181Z,20.93000031
2022-08-01T07:21:38.261Z,20.95999908
2022-08-01T07:21:39.376Z,20.95999908
2022-08-01T07:21:39.877Z,20.95999908
2022-08-01T07:22:13.064Z,21.04999924
2022-08-01T07:22:23.541Z,21.04999924
2022-08-01T07:23:13.424Z,21.15999985
2022-08-01T07:24:13.904Z,21.25
2022-08-01T07:25:13.371Z,21.29000092
2022-08-01T07:26:10.811Z,21.29999924
2022-08-01T07:27:25.388Z,21.32999992
2022-08-01T07:27:25.617Z,21.32999992
2022-08-01T07:27:26.121Z,21.32999992
2022-08-01T07:29:24.783Z,21.40999985
2022-08-01T07:29:45.217Z,21.46999931
2022-08-01T07:30:46.525Z,21.55999947
2022-08-01T07:31:43.796Z,21.57999992
2022-08-01T07:32:44.739Z,21.55999947
2022-08-01T07:33:48.472Z,21.55999947
2022-08-01T07:33:48.873Z,21.55999947
2022-08-01T07:34:40.968Z,21.54999924
2022-08-01T07:35:36.753Z,21.54000092
2022-08-01T07:36:37.001Z,21.53000069
2022-08-01T07:37:45.555Z,21.5
2022-08-01T07:37:47.899Z,21.5
2022-08-01T07:37:48.992Z,21.5
2022-08-01T07:38:34.658Z,21.5
2022-08-01T07:39:33.028Z,21.54000092
2022-08-01T07:40:31.394Z,21.56999969
2022-08-01T07:41:45.556Z,21.60000038
2022-08-01T07:41:52.990Z,21.60000038
2022-08-01T07:42:05.371Z,21.60000038
2022-08-01T07:42:28.971Z,21.65999985
2022-08-01T07:43:25.238Z,21.72999954
2022-08-01T07:44:29.255Z,21.78000069
2022-08-01T07:45:22.039Z,21.79000092
2022-08-01T07:47:19.218Z,21.80999947
2022-08-01T07:48:20.315Z,21.84000015
2022-08-01T07:49:16.792Z,21.87999916
2022-08-01T07:50:15.547Z,21.90999985
2022-08-01T07:51:16.360Z,21.90999985
2022-08-01T07:52:12.596Z,21.92000008
2022-08-01T07:53:16.237Z,21.94000053
2022-08-01T07:54:09.703Z,21.96999931
2022-08-01T07:55:10.652Z,21.97999954
2022-08-01T07:57:07.467Z,22.01000023
2022-08-01T07:58:03.601Z,22
2022-08-01T07:59:06.570Z,21.98999977
2022-08-01T08:00:00.278Z,22
2022-08-01T08:01:57.779Z,22.04999924
2022-08-01T08:02:58.518Z,22.09000015
2022-08-01T08:03:54.809Z,22.11000061
2022-08-01T08:04:58.234Z,22.13999939
2022-08-01T08:05:59.639Z,22.14999962
2022-08-01T08:05:59.809Z,22.14999962
2022-08-01T08:07:49.558Z,22.21999931
2022-08-01T08:08:53.251Z,22.26000023
2022-08-01T08:09:50.960Z,22.29999924
2022-08-01T08:10:51.271Z,22.28000069
2022-08-01T08:11:47.762Z,22.29999924
2022-08-01T08:12:45.804Z,22.31999969
2022-08-01T08:13:42.221Z,22.36000061
2022-08-01T08:14:46.245Z,22.38999939
2022-08-01T08:15:40.061Z,22.39999962
2022-08-01T08:17:38.196Z,22.45000076
2022-08-01T08:19:17.247Z,22.54000092
2022-08-01T08:20:12.549Z,22.57999992
2022-08-01T08:21:12.562Z,22.60000038
2022-08-01T08:22:52.522Z,22.63999939
2022-08-01T08:25:31.697Z,22.76000023
2022-08-01T08:25:52.031Z,22.79000092
2022-08-01T08:27:48.742Z,22.79999924
2022-08-01T08:28:49.056Z,22.75
2022-08-01T08:29:44.806Z,22.71999931
2022-08-01T08:30:47.330Z,22.68000031
2022-08-01T08:31:51.962Z,22.70000076
2022-08-01T08:31:52.021Z,22.70000076
2022-08-01T08:32:41.318Z,22.70999908
2022-08-01T08:33:37.016Z,22.77000046
2022-08-01T08:34:37.629Z,22.80999947
2022-08-01T08:35:40.354Z,22.79000092
2022-08-01T08:35:40.495Z,22.79000092
2022-08-01T08:35:54.159Z,22.79000092
2022-08-01T08:36:31.804Z,22.81999969
2022-08-01T08:37:31.985Z,22.85000038
2022-08-01T08:37:37.880Z,22.85000038
2022-08-01T08:38:28.475Z,22.85000038
2022-08-01T08:39:27.418Z,22.85000038
2022-08-01T08:40:22.232Z,22.81999969
2022-08-01T08:42:16.772Z,22.69000053
2022-08-01T08:43:15.966Z,22.62000084
2022-08-01T08:44:17.271Z,22.54999924
2022-08-01T08:45:11.832Z,22.47999954
2022-08-01T08:47:04.006Z,22.40999985
2022-08-01T08:48:05.366Z,22.38999939
2022-08-01T08:48:57.876Z,22.38999939
2022-08-01T08:50:00.542Z,22.39999962
2022-08-01T08:50:53.182Z,22.42000008
2022-08-01T08:52:48.396Z,22.43000031
2022-08-01T08:53:47.539Z,22.43000031
2022-08-01T08:54:42.913Z,22.43000031
2022-08-01T08:55:55.380Z,22.39999962
2022-08-01T08:55:55.608Z,22.39999962
2022-08-01T08:55:56.473Z,22.39999962
2022-08-01T08:56:41.148Z,22.40999985
2022-08-01T08:57:36.393Z,22.43000031
2022-08-01T08:58:34.662Z,22.42000008
2022-08-01T08:59:33.486Z,22.38999939
2022-08-01T09:00:30.054Z,22.36000061
2022-08-01T09:01:27.552Z,22.30999947
2022-08-01T09:02:28.282Z,22.23999977
2022-08-01T09:03:22.443Z,22.15999985
2022-08-01T09:04:19.992Z,22.14999962
2022-08-01T09:05:21.736Z,22.10000038
2022-08-01T09:06:13.752Z,22.10000038
2022-08-01T09:07:15.394Z,22.07999992
2022-08-01T09:08:07.861Z,22.05999947
2022-08-01T09:09:07.631Z,22.07999992
2022-08-01T09:10:03.068Z,22.11000061
2022-08-01T09:11:57.087Z,22.20000076
2022-08-01T09:11:57.230Z,22.20000076
2022-08-01T09:11:58.229Z,22.20000076
2022-08-01T09:12:27.929Z,22.27000046
2022-08-01T09:13:26.952Z,22.37000084
2022-08-01T09:14:23.435Z,22.39999962
2022-08-01T09:15:23.498Z,22.40999985
2022-08-01T09:16:19.780Z,22.37999916
2022-08-01T09:17:22.655Z,22.37000084
2022-08-01T09:18:15.609Z,22.38999939
2022-08-01T09:19:38.804Z,22.42000008
2022-08-01T09:19:39.500Z,22.42000008
2022-08-01T09:19:40.603Z,22.42000008
2022-08-01T09:20:14.615Z,22.45999908
2022-08-01T09:22:10.744Z,22.52000046
2022-08-01T09:23:05.928Z,22.55999947
2022-08-01T09:24:05.727Z,22.54000092
2022-08-01T09:25:00.872Z,22.52000046
2022-08-01T09:26:00.296Z,22.48999977
2022-08-01T09:27:55.086Z,22.45999908
2022-08-01T09:28:50.213Z,22.45000076
2022-08-01T09:30:00.413Z,22.45000076
2022-08-01T09:30:01.954Z,22.45000076
2022-08-01T09:30:50.490Z,22.47999954
2022-08-01T09:31:47.609Z,22.53000069
2022-08-01T09:32:48.938Z,22.57999992
2022-08-01T09:33:42.137Z,22.59000015
2022-08-01T09:34:39.770Z,22.61000061
2022-08-01T09:35:43.140Z,22.62999916
2022-08-01T09:37:37.324Z,22.63999939
2022-08-01T09:38:36.170Z,22.65999985
2022-08-01T09:39:28.689Z,22.65999985
2022-08-01T09:40:07.578Z,22.63999939
2022-08-01T09:41:02.633Z,22.62999916
2022-08-01T09:43:01.400Z,22.67000008
2022-08-01T09:43:56.281Z,22.68000031
2022-08-01T09:45:23.268Z,22.73999977
2022-08-01T09:46:00.973Z,22.75
2022-08-01T09:47:59.770Z,22.82999992
2022-08-01T09:48:56.056Z,22.82999992
2022-08-01T09:49:57.317Z,22.82999992
2022-08-01T09:50:53.510Z,22.82999992
2022-08-01T09:51:59.932Z,22.86000061
2022-08-01T09:52:00.860Z,22.86000061
2022-08-01T09:52:52.656Z,22.92000008
2022-08-01T09:53:52.178Z,22.95000076
2022-08-01T09:54:49.630Z,22.98999977
2022-08-01T09:55:45.848Z,22.98999977
2022-08-01T09:56:43.953Z,23.01000023
2022-08-01T09:57:44.789Z,23.02000046
2022-08-01T09:58:40.950Z,23.03000069
2022-08-01T09:59:57.267Z,23.03000069
2022-08-01T09:59:57.968Z,23.03000069
2022-08-01T09:59:58.731Z,23.03000069
2022-08-01T10:00:45.674Z,23.06999969
2022-08-01T10:00:46.005Z,23.06999969
2022-08-01T10:02:34.869Z,23.12000084
2022-08-01T10:03:35.326Z,23.11000061
2022-08-01T10:04:30.791Z,23.09000015
2022-08-01T10:05:36.841Z,23.06999969
2022-08-01T10:07:43.256Z,23
2022-08-01T10:07:44.105Z,23
2022-08-01T10:07:44.970Z,23
2022-08-01T10:08:27.240Z,23
2022-08-01T10:09:22.824Z,23.02000046
2022-08-01T10:10:23.469Z,23.04000092
2022-08-01T10:10:29.032Z,23.04000092
2022-08-01T10:12:17.614Z,23.01000023
2022-08-01T10:13:20.611Z,23.01000023
2022-08-01T10:14:14.261Z,22.98999977
2022-08-01T10:15:14.621Z,22.98999977
2022-08-01T10:17:10.657Z,22.98999977
2022-08-01T10:17:18.156Z,22.98999977
2022-08-01T10:18:06.755Z,22.97999954
2022-08-01T10:18:16.830Z,22.97999954
2022-08-01T10:18:26.495Z,22.97999954
2022-08-01T10:19:14.492Z,23.04000092
2022-08-01T10:19:15.562Z,23.04000092
2022-08-01T10:20:13.030Z,23.09000015
2022-08-01T10:20:29.024Z,23.09000015
2022-08-01T10:20:32.762Z,23.09000015
2022-08-01T10:21:10.979Z,23.12000084
2022-08-01T10:23:00.333Z,23.14999962
2022-08-01T10:24:03.118Z,23.12000084
2022-08-01T10:24:56.029Z,23.04999924
2022-08-01T10:25:56.020Z,22.97999954
2022-08-01T10:27:55.156Z,22.86000061
2022-08-01T10:28:49.585Z,22.80999947
2022-08-01T10:29:59.130Z,22.76000023
2022-08-01T10:30:04.545Z,22.76000023
2022-08-01T10:30:08.518Z,22.76000023
2022-08-01T10:30:47.154Z,22.75
2022-08-01T10:32:43.889Z,22.79000092
2022-08-01T10:32:50.708Z,22.79000092
2022-08-01T10:33:50.875Z,22.79999924
2022-08-01T10:33:51.898Z,22.79999924
2022-08-01T10:34:45.049Z,22.84000015
2022-08-01T10:35:47.651Z,22.88999939
2022-08-01T10:35:47.943Z,22.88999939
2022-08-01T10:37:35.181Z,22.94000053
2022-08-01T10:38:35.274Z,22.95999908
2022-08-01T10:39:31.010Z,22.95999908
2022-08-01T10:40:31.911Z,22.95000076
2022-08-01T10:43:04.974Z,23.11000061
2022-08-01T10:45:02.905Z,23.38999939
2022-08-01T10:45:22.835Z,23.5
2022-08-01T10:46:20.068Z,23.55999947
2022-08-01T10:47:23.281Z,23.59000015
2022-08-01T10:47:27.110Z,23.59000015
2022-08-01T10:48:15.252Z,23.61000061
2022-08-01T10:48:20.665Z,23.61000061
2022-08-01T10:49:15.140Z,23.61000061